createdAt,value
2017-12-11T00:01:12.836Z,0.90
2017-12-11T00:03:41.115Z,1.03
2017-12-11T00:06:09.376Z,1.00
2017-12-11T00:08:37.651Z,1.17
2017-12-11T00:11:05.950Z,1.23
2017-12-11T00:13:33.441Z,1.00
2017-12-11T00:16:12.953Z,1.57
2017-12-11T00:18:40.452Z,1.03
2017-12-11T00:21:07.973Z,1.10
2017-12-11T00:23:35.482Z,1.10
2017-12-11T00:26:02.985Z,1.10
2017-12-11T00:28:30.500Z,1.30
2017-12-11T00:30:57.993Z,1.00
2017-12-11T00:33:25.516Z,1.10
2017-12-11T00:35:53.012Z,2.53
2017-12-11T00:38:20.526Z,1.20
2017-12-11T00:40:48.098Z,1.20
2017-12-11T00:43:16.396Z,1.10
2017-12-11T00:45:43.896Z,2.13
2017-12-11T00:48:11.384Z,1.00
2017-12-11T00:50:38.897Z,1.00
2017-12-11T00:53:06.397Z,1.17
2017-12-11T00:55:34.693Z,1.20
2017-12-11T00:58:02.975Z,1.07
2017-12-11T01:00:30.477Z,1.00
2017-12-11T01:02:58.005Z,1.10
2017-12-11T01:05:25.495Z,1.20
2017-12-11T01:07:53.021Z,1.50
2017-12-11T01:10:20.513Z,1.77
2017-12-11T01:12:47.999Z,1.00
2017-12-11T01:15:16.291Z,0.90
2017-12-11T01:17:43.824Z,1.03
2017-12-11T01:20:11.335Z,1.30
2017-12-11T01:22:38.840Z,1.37
2017-12-11T01:25:06.452Z,1.00
2017-12-11T01:27:33.966Z,1.53
2017-12-11T01:30:02.250Z,1.00
2017-12-11T01:32:30.532Z,1.43
2017-12-11T01:34:58.051Z,1.53
2017-12-11T01:37:25.617Z,1.53
2017-12-11T01:39:53.112Z,1.00
2017-12-11T01:42:20.630Z,3.13
2017-12-11T01:44:48.141Z,1.47
2017-12-11T01:47:15.653Z,3.43
2017-12-11T01:49:43.178Z,1.43
2017-12-11T01:52:10.712Z,1.80
2017-12-11T01:54:38.231Z,1.57
2017-12-11T01:57:05.711Z,1.40
2017-12-11T01:59:33.237Z,2.53
2017-12-11T02:02:00.751Z,1.80
2017-12-11T02:04:28.300Z,2.30
2017-12-11T02:06:55.788Z,3.03
2017-12-11T02:09:23.305Z,4.47
2017-12-11T02:11:50.808Z,2.87
2017-12-11T02:14:18.328Z,2.70
2017-12-11T02:16:45.816Z,6.33
2017-12-11T02:19:13.327Z,2.13
2017-12-11T02:21:40.827Z,3.13
2017-12-11T02:24:08.327Z,2.13
2017-12-11T02:26:36.606Z,2.50
2017-12-11T02:29:04.864Z,3.20
2017-12-11T02:31:32.380Z,2.20
2017-12-11T02:33:59.892Z,2.60
2017-12-11T02:36:28.180Z,2.60
2017-12-11T02:38:55.689Z,2.13
2017-12-11T02:41:23.179Z,1.20
2017-12-11T02:43:51.459Z,1.60
2017-12-11T02:46:19.744Z,1.67
2017-12-11T02:48:47.243Z,1.67
2017-12-11T02:51:14.763Z,1.43
2017-12-11T02:53:42.248Z,1.20
2017-12-11T02:56:09.914Z,1.47
2017-12-11T02:58:37.420Z,1.47
2017-12-11T03:01:05.677Z,2.80
2017-12-11T03:03:33.184Z,1.00
2017-12-11T03:06:00.676Z,1.20
2017-12-11T03:08:28.195Z,1.40
2017-12-11T03:10:55.689Z,1.10
2017-12-11T03:13:23.208Z,1.17
2017-12-11T03:15:50.706Z,1.30
2017-12-11T03:18:18.252Z,1.13
2017-12-11T03:20:45.772Z,1.10
2017-12-11T03:23:13.264Z,1.63
2017-12-11T03:25:40.769Z,2.37
2017-12-11T03:28:09.021Z,1.83
2017-12-11T03:30:37.319Z,1.00
2017-12-11T03:33:05.580Z,1.30
2017-12-11T03:35:33.089Z,4.50
2017-12-11T03:38:00.619Z,2.77
2017-12-11T03:40:28.127Z,1.60
2017-12-11T03:42:55.612Z,1.37
2017-12-11T03:45:23.134Z,1.70
2017-12-11T03:47:50.709Z,2.80
2017-12-11T03:50:18.191Z,1.30
2017-12-11T03:52:46.448Z,2.00
2017-12-11T03:55:13.967Z,1.90
2017-12-11T03:57:41.458Z,1.63
2017-12-11T04:00:09.117Z,2.03
2017-12-11T04:02:36.633Z,2.47
2017-12-11T04:05:04.165Z,2.60
2017-12-11T04:07:32.452Z,2.10
2017-12-11T04:09:59.970Z,1.80
2017-12-11T04:12:27.476Z,2.40
2017-12-11T04:14:54.987Z,2.03
2017-12-11T04:17:23.263Z,2.13
2017-12-11T04:19:51.549Z,2.87
2017-12-11T04:22:19.066Z,3.60
2017-12-11T04:24:46.564Z,2.10
2017-12-11T04:27:14.061Z,2.77
2017-12-11T04:29:41.573Z,2.80
2017-12-11T04:32:09.072Z,2.70
2017-12-11T04:34:36.619Z,2.50
2017-12-11T04:37:04.116Z,2.10
2017-12-11T04:39:31.637Z,1.67
2017-12-11T04:41:59.131Z,2.07
2017-12-11T04:44:26.743Z,1.87
2017-12-11T04:46:55.012Z,2.70
2017-12-11T04:49:23.285Z,2.10
2017-12-11T04:51:51.558Z,1.90
2017-12-11T04:54:19.857Z,2.40
2017-12-11T04:56:47.376Z,2.40
2017-12-11T04:59:14.949Z,2.20
2017-12-11T05:01:43.210Z,2.43
2017-12-11T05:04:10.744Z,3.00
2017-12-11T05:06:38.260Z,3.20
2017-12-11T05:09:05.785Z,3.17
2017-12-11T05:11:33.280Z,3.33
2017-12-11T05:14:00.772Z,3.87
2017-12-11T05:16:28.315Z,4.53
2017-12-11T05:18:55.816Z,3.77
2017-12-11T05:21:24.086Z,4.80
2017-12-11T05:23:51.597Z,3.57
2017-12-11T05:26:19.094Z,4.37
2017-12-11T05:28:46.612Z,4.07
2017-12-11T05:31:14.237Z,4.40
2017-12-11T05:33:42.527Z,5.93
2017-12-11T05:36:10.013Z,6.07
2017-12-11T05:38:37.538Z,5.83
2017-12-11T05:41:05.804Z,5.77
2017-12-11T05:43:34.060Z,7.67
2017-12-11T05:46:01.569Z,5.50
2017-12-11T05:48:29.075Z,5.70
2017-12-11T05:50:56.595Z,5.23
2017-12-11T05:53:24.649Z,4.33
2017-12-11T05:55:52.144Z,7.13
2017-12-11T05:58:19.656Z,4.87
2017-12-11T06:00:47.152Z,4.77
2017-12-11T06:03:14.668Z,5.73
2017-12-11T06:05:42.152Z,4.20
2017-12-11T06:08:09.665Z,7.23
2017-12-11T06:10:37.924Z,7.00
2017-12-11T06:13:05.436Z,10.20
2017-12-11T06:15:32.960Z,7.50
2017-12-11T06:18:01.241Z,5.33
2017-12-11T06:20:28.747Z,6.53
2017-12-11T06:22:56.240Z,4.63
2017-12-11T06:25:24.516Z,4.30
2017-12-11T06:27:52.795Z,5.50
2017-12-11T06:30:21.073Z,4.70
2017-12-11T06:32:49.355Z,5.60
2017-12-11T06:35:16.843Z,4.40
2017-12-11T06:37:44.362Z,4.30
2017-12-11T06:40:12.629Z,5.43
2017-12-11T06:42:40.880Z,4.33
2017-12-11T06:45:08.466Z,4.10
2017-12-11T06:47:36.712Z,4.07
2017-12-11T06:50:04.232Z,4.43
2017-12-11T06:52:31.715Z,4.67
2017-12-11T06:54:59.252Z,4.10
2017-12-11T06:57:26.739Z,8.30
2017-12-11T06:59:54.251Z,6.87
2017-12-11T07:02:21.740Z,4.17
2017-12-11T07:04:49.283Z,2.47
2017-12-11T07:07:16.768Z,3.23
2017-12-11T07:09:44.259Z,2.10
2017-12-11T07:12:12.535Z,4.63
2017-12-11T07:14:40.066Z,3.67
2017-12-11T07:17:07.592Z,2.83
2017-12-11T07:19:35.105Z,4.33
2017-12-11T07:22:03.422Z,3.10
2017-12-11T07:24:30.936Z,6.73
2017-12-11T07:26:59.215Z,4.43
2017-12-11T07:29:27.497Z,3.13
2017-12-11T07:31:55.755Z,3.53
2017-12-11T07:34:24.034Z,3.53
2017-12-11T07:36:52.420Z,6.20
2017-12-11T07:39:20.728Z,3.77
2017-12-11T07:41:48.220Z,3.70
2017-12-11T07:44:15.738Z,3.97
2017-12-11T07:46:43.281Z,5.03
2017-12-11T07:49:10.771Z,5.93
2017-12-11T07:51:38.283Z,5.00
2017-12-11T07:54:06.542Z,6.50
2017-12-11T07:56:34.061Z,7.80
2017-12-11T07:59:01.545Z,9.30
2017-12-11T08:01:29.081Z,10.00
2017-12-11T08:03:56.590Z,6.70
2017-12-11T08:06:24.853Z,11.07
2017-12-11T08:08:53.132Z,6.93
2017-12-11T08:11:21.397Z,4.40
2017-12-11T08:13:49.688Z,6.07
2017-12-11T08:16:17.977Z,4.63
2017-12-11T08:18:45.494Z,4.50
2017-12-11T08:21:12.986Z,4.00
2017-12-11T08:23:40.503Z,3.53
2017-12-11T08:26:08.009Z,3.50
2017-12-11T08:28:35.517Z,4.60
2017-12-11T08:31:03.036Z,3.83
2017-12-11T08:33:30.529Z,4.70
2017-12-11T08:35:58.049Z,4.50
2017-12-11T08:38:25.548Z,4.63
2017-12-11T08:40:53.085Z,6.13
2017-12-11T08:43:20.588Z,4.93
2017-12-11T08:45:48.860Z,4.40
2017-12-11T08:48:17.137Z,6.40
2017-12-11T08:50:45.396Z,5.80
2017-12-11T08:53:12.886Z,6.20
2017-12-11T08:55:40.398Z,7.00
2017-12-11T08:58:07.894Z,7.33
2017-12-11T09:00:36.164Z,6.57
2017-12-11T09:03:04.408Z,8.20
2017-12-11T09:05:31.980Z,9.50
2017-12-11T09:08:00.392Z,9.10
2017-12-11T09:10:27.944Z,12.53
2017-12-11T09:12:55.466Z,11.83
2017-12-11T09:15:23.778Z,11.67
2017-12-11T09:17:51.280Z,13.23
2017-12-11T09:20:18.789Z,13.97
2017-12-11T09:22:46.307Z,10.43
2017-12-11T09:25:13.813Z,10.70
2017-12-11T09:27:41.320Z,10.77
2017-12-11T09:30:08.816Z,10.40
2017-12-11T09:32:37.124Z,11.20
2017-12-11T09:35:04.612Z,13.60
2017-12-11T09:37:32.113Z,11.03
2017-12-11T09:39:59.624Z,8.90
2017-12-11T09:42:27.129Z,14.57
2017-12-11T09:44:54.636Z,8.70
2017-12-11T09:47:22.144Z,6.53
2017-12-11T09:49:49.657Z,4.80
2017-12-11T09:52:17.145Z,3.70
2017-12-11T09:54:45.424Z,3.40
2017-12-11T09:57:13.715Z,1.73
2017-12-11T09:59:41.224Z,2.00
2017-12-11T10:02:08.747Z,2.60
2017-12-11T10:04:36.231Z,1.70
2017-12-11T10:07:03.726Z,1.50
2017-12-11T10:09:32.004Z,2.80
2017-12-11T10:12:00.275Z,1.90
2017-12-11T10:14:28.557Z,1.70
2017-12-11T10:16:56.816Z,2.00
2017-12-11T10:19:25.096Z,1.60
2017-12-11T10:21:53.382Z,2.10
2017-12-11T10:24:21.660Z,4.13
2017-12-11T10:26:49.143Z,2.70
2017-12-11T10:29:16.658Z,2.30
2017-12-11T10:31:44.950Z,2.47
2017-12-11T10:34:12.445Z,2.20
2017-12-11T10:36:40.021Z,2.50
2017-12-11T10:39:07.519Z,3.33
2017-12-11T10:41:35.804Z,3.70
2017-12-11T10:44:03.288Z,7.00
2017-12-11T10:46:30.784Z,4.43
2017-12-11T10:48:58.305Z,5.13
2017-12-11T10:51:25.808Z,5.73
2017-12-11T10:53:54.090Z,5.20
2017-12-11T10:56:22.344Z,8.13
2017-12-11T10:58:49.859Z,5.70
2017-12-11T11:01:17.362Z,4.77
2017-12-11T11:03:44.876Z,3.50
2017-12-11T11:06:12.370Z,4.20
2017-12-11T11:08:41.377Z,6.37
2017-12-11T11:11:09.661Z,3.87
2017-12-11T11:13:37.929Z,5.30
2017-12-11T11:16:06.208Z,4.57
2017-12-11T11:18:34.487Z,4.13
2017-12-11T11:21:02.804Z,3.80
2017-12-11T11:23:30.340Z,4.40
2017-12-11T11:25:57.865Z,3.93
2017-12-11T11:28:25.378Z,4.27
2017-12-11T11:30:52.877Z,5.00
2017-12-11T11:33:20.482Z,4.13
2017-12-11T11:35:47.967Z,7.00
2017-12-11T11:38:15.460Z,2.50
2017-12-11T11:40:43.737Z,4.63
2017-12-11T11:43:12.012Z,4.60
2017-12-11T11:45:40.299Z,4.53
2017-12-11T11:48:08.548Z,3.80
2017-12-11T11:50:36.063Z,4.20
2017-12-11T11:53:03.554Z,3.80
2017-12-11T11:55:31.064Z,3.90
2017-12-11T11:57:58.561Z,4.03
2017-12-11T12:00:27.041Z,3.60
2017-12-11T12:02:54.581Z,5.50
2017-12-11T12:05:22.065Z,4.80
2017-12-11T12:07:49.572Z,5.07
2017-12-11T12:10:17.113Z,6.17
2017-12-11T12:12:45.384Z,4.60
2017-12-11T12:15:13.733Z,5.47
2017-12-11T12:17:41.226Z,5.73
2017-12-11T12:20:08.743Z,5.07
2017-12-11T12:22:36.244Z,5.50
2017-12-11T12:25:03.739Z,7.23
2017-12-11T12:27:31.252Z,7.43
2017-12-11T12:29:58.748Z,5.33
2017-12-11T12:32:26.277Z,4.73
2017-12-11T12:34:53.759Z,6.50
2017-12-11T12:37:21.273Z,6.30
2017-12-11T12:39:49.575Z,3.70
2017-12-11T12:42:17.064Z,6.03
2017-12-11T12:44:44.631Z,4.90
2017-12-11T12:47:13.644Z,5.00
2017-12-11T12:49:41.133Z,3.60
2017-12-11T12:52:08.672Z,5.30
2017-12-11T12:54:36.938Z,4.00
2017-12-11T12:57:05.240Z,7.60
2017-12-11T12:59:32.798Z,4.23
2017-12-11T13:02:00.299Z,5.30
2017-12-11T13:04:27.837Z,4.93
2017-12-11T13:06:55.349Z,4.27
2017-12-11T13:09:23.633Z,4.50
2017-12-11T13:11:51.906Z,4.57
2017-12-11T13:14:20.185Z,8.50
2017-12-11T13:16:48.459Z,3.77
2017-12-11T13:19:16.752Z,4.83
2017-12-11T13:21:44.263Z,4.33
2017-12-11T13:24:11.754Z,5.17
2017-12-11T13:26:39.284Z,4.20
2017-12-11T13:29:06.790Z,4.67
2017-12-11T13:31:34.318Z,6.33
2017-12-11T13:34:02.573Z,3.67
2017-12-11T13:36:30.083Z,5.40
2017-12-11T13:38:57.614Z,3.60
2017-12-11T13:41:25.931Z,7.10
2017-12-11T13:43:53.443Z,4.23
2017-12-11T13:46:21.705Z,9.20
2017-12-11T13:48:50.030Z,4.73
2017-12-11T13:51:17.515Z,7.47
2017-12-11T13:53:45.020Z,5.43
2017-12-11T13:56:12.532Z,4.77
2017-12-11T13:58:40.027Z,4.30
2017-12-11T14:01:08.319Z,9.47
2017-12-11T14:03:35.809Z,5.90
2017-12-11T14:06:03.349Z,5.27
2017-12-11T14:08:30.869Z,6.10
2017-12-11T14:10:59.136Z,6.10
2017-12-11T14:13:27.916Z,6.13
2017-12-11T14:15:56.180Z,6.17
2017-12-11T14:18:23.680Z,6.27
2017-12-11T14:20:51.224Z,6.10
2017-12-11T14:23:19.510Z,6.00
2017-12-11T14:25:47.055Z,5.50
2017-12-11T14:28:15.325Z,6.47
2017-12-11T14:30:43.610Z,9.90
2017-12-11T14:33:11.896Z,8.87
2017-12-11T14:35:39.398Z,7.77
2017-12-11T14:38:06.929Z,7.67
2017-12-11T14:40:34.424Z,8.30
2017-12-11T14:43:01.951Z,8.83
2017-12-11T14:45:29.456Z,9.03
2017-12-11T14:47:57.001Z,8.90
2017-12-11T14:50:24.498Z,8.00
2017-12-11T14:52:51.991Z,6.97
2017-12-11T14:55:19.509Z,8.17
2017-12-11T14:57:47.005Z,4.63
2017-12-11T15:00:14.543Z,7.90
2017-12-11T15:02:42.047Z,6.07
2017-12-11T15:05:09.581Z,5.10
2017-12-11T15:07:37.081Z,7.57
2017-12-11T15:10:05.346Z,6.30
2017-12-11T15:12:33.645Z,7.40
2017-12-11T15:15:01.908Z,6.03
2017-12-11T15:17:30.204Z,6.27
2017-12-11T15:19:57.704Z,7.93
2017-12-11T15:22:25.200Z,9.20
2017-12-11T15:24:53.493Z,4.73
2017-12-11T15:27:20.986Z,6.10
2017-12-11T15:29:48.512Z,5.13
2017-12-11T15:32:16.020Z,7.40
2017-12-11T15:34:43.548Z,7.77
2017-12-11T15:37:11.052Z,6.30
2017-12-11T15:39:38.569Z,7.47
2017-12-11T15:42:06.095Z,7.97
2017-12-11T15:44:33.646Z,8.40
2017-12-11T15:47:01.948Z,6.90
2017-12-11T15:49:29.437Z,6.40
2017-12-11T15:51:56.928Z,8.70
2017-12-11T15:54:25.207Z,6.80
2017-12-11T15:56:53.458Z,7.27
2017-12-11T15:59:20.980Z,7.30
2017-12-11T16:01:48.467Z,8.43
2017-12-11T16:04:15.970Z,5.53
2017-12-11T16:06:43.516Z,5.57
2017-12-11T16:09:11.022Z,5.30
2017-12-11T16:11:38.533Z,7.50
2017-12-11T16:14:06.025Z,7.23
2017-12-11T16:16:33.562Z,8.03
2017-12-11T16:19:01.091Z,6.00
2017-12-11T16:21:29.366Z,8.80
2017-12-11T16:23:57.686Z,6.13
2017-12-11T16:26:25.197Z,6.10
2017-12-11T16:28:53.489Z,5.53
2017-12-11T16:31:21.023Z,7.93
2017-12-11T16:33:48.565Z,5.57
2017-12-11T16:36:16.068Z,12.03
2017-12-11T16:38:43.616Z,6.63
2017-12-11T16:41:11.915Z,4.77
2017-12-11T16:43:39.422Z,8.53
2017-12-11T16:46:06.965Z,6.23
2017-12-11T16:48:34.489Z,6.23
2017-12-11T16:51:02.021Z,6.97
2017-12-11T16:53:30.309Z,6.07
2017-12-11T16:55:57.828Z,7.27
2017-12-11T16:58:25.341Z,6.03
2017-12-11T17:00:52.899Z,5.93
2017-12-11T17:03:20.405Z,9.40
2017-12-11T17:05:47.919Z,7.10
2017-12-11T17:08:15.483Z,5.67
2017-12-11T17:10:42.989Z,5.37
2017-12-11T17:13:11.288Z,4.10
2017-12-11T17:15:38.801Z,4.47
2017-12-11T17:18:06.519Z,3.47
2017-12-11T17:20:34.032Z,4.20
2017-12-11T17:23:01.710Z,3.30
2017-12-11T17:25:30.007Z,3.87
2017-12-11T17:27:57.510Z,3.83
2017-12-11T17:30:25.056Z,4.13
2017-12-11T17:32:52.566Z,3.10
2017-12-11T17:35:20.118Z,2.53
2017-12-11T17:37:48.388Z,2.60
2017-12-11T17:40:16.702Z,2.40
2017-12-11T17:42:44.209Z,2.63
2017-12-11T17:45:12.483Z,2.23
2017-12-11T17:47:40.799Z,1.50
2017-12-11T17:50:08.320Z,1.40
2017-12-11T17:52:36.636Z,1.40
2017-12-11T17:55:04.141Z,1.87
2017-12-11T17:57:31.703Z,2.40
2017-12-11T17:59:59.202Z,2.27
2017-12-11T18:02:26.788Z,1.10
2017-12-11T18:04:54.303Z,1.77
2017-12-11T18:07:22.584Z,11.70
2017-12-11T18:09:50.132Z,1.73
2017-12-11T18:12:18.403Z,2.07
2017-12-11T18:14:46.698Z,2.17
2017-12-11T18:17:14.198Z,1.83
2017-12-11T18:19:41.690Z,2.20
2017-12-11T18:22:09.991Z,1.50
2017-12-11T18:24:37.489Z,2.10
2017-12-11T18:27:05.060Z,2.10
2017-12-11T18:29:32.575Z,1.70
2017-12-11T18:32:00.175Z,2.37
2017-12-11T18:34:27.724Z,2.07
2017-12-11T18:36:56.661Z,2.23
2017-12-11T18:39:24.193Z,2.53
2017-12-11T18:41:51.702Z,2.07
2017-12-11T18:44:19.269Z,1.30
2017-12-11T18:46:46.789Z,4.13
2017-12-11T18:49:15.049Z,2.40
2017-12-11T18:51:43.403Z,2.13
2017-12-11T18:54:10.919Z,1.83
2017-12-11T18:56:38.453Z,2.17
2017-12-11T18:59:06.740Z,1.60
2017-12-11T19:01:34.276Z,1.67
2017-12-11T19:04:02.550Z,2.10
2017-12-11T19:06:30.084Z,2.30
2017-12-11T19:08:57.596Z,2.07
2017-12-11T19:11:25.116Z,1.60
2017-12-11T19:13:52.662Z,2.00
2017-12-11T19:16:20.164Z,2.40
2017-12-11T19:18:48.789Z,1.77
2017-12-11T19:21:16.341Z,2.40
2017-12-11T19:23:43.911Z,3.43
2017-12-11T19:26:11.470Z,1.90
2017-12-11T19:28:38.975Z,3.67
2017-12-11T19:31:06.515Z,2.73
2017-12-11T19:33:34.788Z,2.27
2017-12-11T19:36:03.084Z,2.00
2017-12-11T19:38:30.604Z,2.20
2017-12-11T19:40:58.138Z,1.60
2017-12-11T19:43:25.656Z,2.20
2017-12-11T19:45:53.163Z,1.30
2017-12-11T19:48:20.688Z,2.70
2017-12-11T19:50:48.219Z,1.50
2017-12-11T19:53:16.563Z,1.27
2017-12-11T19:55:44.063Z,1.37
2017-12-11T19:58:12.347Z,1.30
2017-12-11T20:00:39.913Z,2.93
2017-12-11T20:03:07.450Z,1.20
2017-12-11T20:05:35.019Z,1.30
2017-12-11T20:08:02.531Z,1.17
2017-12-11T20:10:30.091Z,1.20
2017-12-11T20:12:57.605Z,1.30
2017-12-11T20:15:25.152Z,1.00
2017-12-11T20:17:52.729Z,1.17
2017-12-11T20:20:20.263Z,1.10
2017-12-11T20:22:47.800Z,1.23
2017-12-11T20:25:16.109Z,1.00
2017-12-11T20:27:43.635Z,1.20
2017-12-11T20:30:11.943Z,1.00
2017-12-11T20:32:39.470Z,1.10
2017-12-11T20:35:07.854Z,1.63
2017-12-11T20:37:36.132Z,1.50
2017-12-11T20:40:04.397Z,1.20
2017-12-11T20:42:32.729Z,0.90
2017-12-11T20:45:00.237Z,1.53
2017-12-11T20:47:28.583Z,1.10
2017-12-11T20:49:56.093Z,0.90
2017-12-11T20:52:23.718Z,1.00
2017-12-11T20:54:52.509Z,1.50
2017-12-11T20:57:20.523Z,1.20
2017-12-11T20:59:48.493Z,1.00
2017-12-11T21:02:16.561Z,1.00
2017-12-11T21:04:44.532Z,1.13
2017-12-11T21:07:12.501Z,0.90
2017-12-11T21:09:40.568Z,1.00
2017-12-11T21:12:08.535Z,1.00
2017-12-11T21:14:36.505Z,1.23
2017-12-11T21:17:04.473Z,1.10
2017-12-11T21:19:32.440Z,0.97
2017-12-11T21:22:00.416Z,1.00
2017-12-11T21:24:28.481Z,0.90
2017-12-11T21:26:57.163Z,1.00
2017-12-11T21:29:25.238Z,1.03
2017-12-11T21:31:53.304Z,1.00
2017-12-11T21:34:21.273Z,0.90
2017-12-11T21:36:49.241Z,1.00
2017-12-11T21:39:17.209Z,1.00
2017-12-11T21:41:45.177Z,1.00
2017-12-11T21:44:13.144Z,1.03
2017-12-11T21:46:41.111Z,1.10
2017-12-11T21:49:08.978Z,0.90
2017-12-11T21:51:36.842Z,1.03
2017-12-11T21:54:04.409Z,1.23
2017-12-11T21:56:31.951Z,0.90
2017-12-11T21:58:59.511Z,1.10
2017-12-11T22:01:27.010Z,1.10
2017-12-11T22:03:54.578Z,1.43
2017-12-11T22:06:22.104Z,1.03
2017-12-11T22:08:49.613Z,1.07
2017-12-11T22:11:17.906Z,1.00
2017-12-11T22:13:45.433Z,1.10
2017-12-11T22:16:12.951Z,1.20
2017-12-11T22:18:40.486Z,1.40
2017-12-11T22:21:07.998Z,1.20
2017-12-11T22:23:35.551Z,0.90
2017-12-11T22:26:03.054Z,1.07
2017-12-11T22:28:30.587Z,0.90
2017-12-11T22:30:58.904Z,1.00
2017-12-11T22:33:26.442Z,1.30
2017-12-11T22:35:53.950Z,1.57
2017-12-11T22:38:21.484Z,0.90
2017-12-11T22:40:49.265Z,1.30
2017-12-11T22:43:16.774Z,1.17
2017-12-11T22:45:45.097Z,1.30
2017-12-11T22:48:12.601Z,1.10
2017-12-11T22:50:40.857Z,1.20
2017-12-11T22:53:08.373Z,1.30
2017-12-11T22:55:35.877Z,4.03
2017-12-11T22:58:03.403Z,0.90
2017-12-11T23:00:31.735Z,1.10
2017-12-11T23:02:59.280Z,1.03
2017-12-11T23:05:27.554Z,1.30
2017-12-11T23:07:55.853Z,1.50
2017-12-11T23:10:23.370Z,1.10
2017-12-11T23:12:50.864Z,0.90
2017-12-11T23:15:18.375Z,1.00
2017-12-11T23:17:45.951Z,1.73
2017-12-11T23:20:13.444Z,1.40
2017-12-11T23:22:40.961Z,1.10
2017-12-11T23:25:08.572Z,0.90
2017-12-11T23:27:36.109Z,1.00
2017-12-11T23:30:03.592Z,0.90
2017-12-11T23:32:31.100Z,1.40
2017-12-11T23:34:59.394Z,1.00
2017-12-11T23:37:27.657Z,1.20
2017-12-11T23:39:55.951Z,1.33
2017-12-11T23:42:23.497Z,0.97
2017-12-11T23:44:51.749Z,0.90
2017-12-11T23:47:20.032Z,0.87
2017-12-11T23:49:47.525Z,1.00
2017-12-11T23:52:15.041Z,1.20
2017-12-11T23:54:42.527Z,1.10
2017-12-11T23:57:10.825Z,1.00
2017-12-11T23:59:38.339Z,1.03
